sensor_id;sensor_type;location;lat;lon;timestamp;pressure;altitude;pressure_sealevel;temperature;humidity
28310;BME280;15571;50.974;13.936;2023-02-15T00:00:11;101677.56;;;2.76;100.00
28310;BME280;15571;50.974;13.936;2023-02-15T00:03:15;101675.06;;;2.77;100.00
28310;BME280;15571;50.974;13.936;2023-02-15T00:06:19;101676.84;;;2.78;100.00
28310;BME280;15571;50.974;13.936;2023-02-15T00:09:22;101665.59;;;2.78;100.00
28310;BME280;15571;50.974;13.936;2023-02-15T00:12:23;101672.53;;;2.79;100.00
28310;BME280;15571;50.974;13.936;2023-02-15T00:15:25;101668.13;;;2.76;100.00
28310;BME280;15571;50.974;13.936;2023-02-15T00:18:27;101673.28;;;2.76;100.00
28310;BME280;15571;50.974;13.936;2023-02-15T00:21:31;101669.72;;;2.74;100.00
28310;BME280;15571;50.974;13.936;2023-02-15T00:24:34;101670.59;;;2.75;100.00
28310;BME280;15571;50.974;13.936;2023-02-15T00:27:36;101657.69;;;2.75;100.00
28310;BME280;15571;50.974;13.936;2023-02-15T00:30:40;101657.63;;;2.73;100.00
28310;BME280;15571;50.974;13.936;2023-02-15T00:33:42;101655.03;;;2.73;100.00
28310;BME280;15571;50.974;13.936;2023-02-15T00:36:45;101655.94;;;2.74;100.00
28310;BME280;15571;50.974;13.936;2023-02-15T00:39:48;101658.34;;;2.71;100.00
28310;BME280;15571;50.974;13.936;2023-02-15T00:42:51;101648.00;;;2.71;100.00
28310;BME280;15571;50.974;13.936;2023-02-15T00:45:56;101661.75;;;2.70;100.00
28310;BME280;15571;50.974;13.936;2023-02-15T00:48:57;101655.47;;;2.64;100.00
28310;BME280;15571;50.974;13.936;2023-02-15T00:52:01;101658.88;;;2.63;100.00
28310;BME280;15571;50.974;13.936;2023-02-15T00:55:09;101661.28;;;2.60;100.00
28310;BME280;15571;50.974;13.936;2023-02-15T00:58:11;101656.13;;;2.60;100.00
28310;BME280;15571;50.974;13.936;2023-02-15T01:01:15;101652.72;;;2.61;100.00
28310;BME280;15571;50.974;13.936;2023-02-15T01:04:25;101642.38;;;2.61;100.00
28310;BME280;15571;50.974;13.936;2023-02-15T01:07:28;101639.69;;;2.60;100.00
28310;BME280;15571;50.974;13.936;2023-02-15T01:10:33;101641.41;;;2.59;100.00
28310;BME280;15571;50.974;13.936;2023-02-15T01:13:36;101638.84;;;2.59;100.00
28310;BME280;15571;50.974;13.936;2023-02-15T01:16:39;101641.34;;;2.58;100.00
28310;BME280;15571;50.974;13.936;2023-02-15T01:19:41;101635.28;;;2.57;100.00
28310;BME280;15571;50.974;13.936;2023-02-15T01:22:45;101630.19;;;2.59;100.00
28310;BME280;15571;50.974;13.936;2023-02-15T01:25:46;101628.50;;;2.59;100.00
28310;BME280;15571;50.974;13.936;2023-02-15T01:28:48;101617.28;;;2.59;100.00
28310;BME280;15571;50.974;13.936;2023-02-15T01:31:50;101623.16;;;2.56;100.00
28310;BME280;15571;50.974;13.936;2023-02-15T01:34:52;101617.97;;;2.56;100.00
28310;BME280;15571;50.974;13.936;2023-02-15T01:37:56;101614.59;;;2.57;100.00
28310;BME280;15571;50.974;13.936;2023-02-15T01:41:00;101626.72;;;2.58;100.00
28310;BME280;15571;50.974;13.936;2023-02-15T01:47:38;101616.22;;;2.55;100.00
28310;BME280;15571;50.974;13.936;2023-02-15T01:50:48;101607.50;;;2.53;100.00
28310;BME280;15571;50.974;13.936;2023-02-15T01:53:57;101608.31;;;2.52;100.00
28310;BME280;15571;50.974;13.936;2023-02-15T01:57:01;101602.19;;;2.50;100.00
28310;BME280;15571;50.974;13.936;2023-02-15T02:00:08;101597.00;;;2.50;100.00
28310;BME280;15571;50.974;13.936;2023-02-15T02:03:13;101590.06;;;2.49;100.00
28310;BME280;15571;50.974;13.936;2023-02-15T02:06:16;101587.31;;;2.46;100.00
28310;BME280;15571;50.974;13.936;2023-02-15T02:09:20;101589.03;;;2.45;100.00
28310;BME280;15571;50.974;13.936;2023-02-15T02:12:22;101586.50;;;2.47;100.00
28310;BME280;15571;50.974;13.936;2023-02-15T02:15:27;101579.56;;;2.46;100.00
28310;BME280;15571;50.974;13.936;2023-02-15T02:18:37;101575.25;;;2.45;100.00
28310;BME280;15571;50.974;13.936;2023-02-15T02:25:18;101569.09;;;2.43;100.00
28310;BME280;15571;50.974;13.936;2023-02-15T02:28:34;101569.91;;;2.42;100.00
28310;BME280;15571;50.974;13.936;2023-02-15T02:31:44;101564.72;;;2.42;100.00
28310;BME280;15571;50.974;13.936;2023-02-15T02:34:55;101562.97;;;2.41;100.00
28310;BME280;15571;50.974;13.936;2023-02-15T02:38:06;101555.22;;;2.41;100.00
28310;BME280;15571;50.974;13.936;2023-02-15T02:41:12;101553.44;;;2.40;100.00
28310;BME280;15571;50.974;13.936;2023-02-15T02:44:19;101554.31;;;2.40;100.00
28310;BME280;15571;50.974;13.936;2023-02-15T02:47:26;101552.56;;;2.39;100.00
28310;BME280;15571;50.974;13.936;2023-02-15T02:50:38;101551.66;;;2.39;100.00
28310;BME280;15571;50.974;13.936;2023-02-15T02:53:40;101545.50;;;2.37;100.00
28310;BME280;15571;50.974;13.936;2023-02-15T02:56:43;101553.84;;;2.31;100.00
28310;BME280;15571;50.974;13.936;2023-02-15T02:59:47;101550.56;;;2.33;100.00
28310;BME280;15571;50.974;13.936;2023-02-15T03:02:52;101547.88;;;2.32;100.00
28310;BME280;15571;50.974;13.936;2023-02-15T03:05:59;101549.59;;;2.31;100.00
28310;BME280;15571;50.974;13.936;2023-02-15T03:09:03;101546.09;;;2.31;100.00
28310;BME280;15571;50.974;13.936;2023-02-15T03:12:08;101544.41;;;2.31;100.00
28310;BME280;15571;50.974;13.936;2023-02-15T03:15:16;101543.44;;;2.29;100.00
28310;BME280;15571;50.974;13.936;2023-02-15T03:18:22;101540.00;;;2.29;100.00
28310;BME280;15571;50.974;13.936;2023-02-15T03:25:16;101534.59;;;2.24;100.00
28310;BME280;15571;50.974;13.936;2023-02-15T03:28:22;101542.34;;;2.24;100.00
28310;BME280;15571;50.974;13.936;2023-02-15T03:31:28;101534.66;;;2.26;100.00
28310;BME280;15571;50.974;13.936;2023-02-15T03:34:32;101534.66;;;2.26;100.00
28310;BME280;15571;50.974;13.936;2023-02-15T03:37:39;101538.78;;;2.22;100.00
28310;BME280;15571;50.974;13.936;2023-02-15T03:40:44;101535.41;;;2.23;100.00
28310;BME280;15571;50.974;13.936;2023-02-15T03:44:06;101532.72;;;2.22;100.00
28310;BME280;15571;50.974;13.936;2023-02-15T03:47:11;101537.88;;;2.22;100.00
28310;BME280;15571;50.974;13.936;2023-02-15T03:50:15;101542.03;;;2.18;100.00
28310;BME280;15571;50.974;13.936;2023-02-15T03:53:37;101539.53;;;2.20;100.00
28310;BME280;15571;50.974;13.936;2023-02-15T03:56:41;101542.13;;;2.20;100.00
28310;BME280;15571;50.974;13.936;2023-02-15T04:00:09;101535.97;;;2.17;100.00
28310;BME280;15571;50.974;13.936;2023-02-15T04:03:31;101539.22;;;2.13;100.00
28310;BME280;15571;50.974;13.936;2023-02-15T04:06:38;101541.72;;;2.12;100.00
28310;BME280;15571;50.974;13.936;2023-02-15T04:09:40;101541.44;;;2.06;100.00
28310;BME280;15571;50.974;13.936;2023-02-15T04:13:00;101546.44;;;2.02;100.00
28310;BME280;15571;50.974;13.936;2023-02-15T04:16:03;101547.41;;;2.05;100.00
28310;BME280;15571;50.974;13.936;2023-02-15T04:19:03;101544.81;;;2.05;100.00
28310;BME280;15571;50.974;13.936;2023-02-15T04:22:23;101546.59;;;2.06;100.00
28310;BME280;15571;50.974;13.936;2023-02-15T04:25:44;101534.63;;;2.08;100.00
28310;BME280;15571;50.974;13.936;2023-02-15T04:28:47;101536.41;;;2.09;100.00
28310;BME280;15571;50.974;13.936;2023-02-15T04:31:50;101546.59;;;2.06;100.00
28310;BME280;15571;50.974;13.936;2023-02-15T04:34:55;101534.63;;;2.08;100.00
28310;BME280;15571;50.974;13.936;2023-02-15T04:37:57;101537.31;;;2.09;100.00
28310;BME280;15571;50.974;13.936;2023-02-15T04:41:01;101534.63;;;2.08;100.00
28310;BME280;15571;50.974;13.936;2023-02-15T04:44:05;101531.22;;;2.09;100.00
28310;BME280;15571;50.974;13.936;2023-02-15T04:47:09;101529.63;;;2.11;100.00
28310;BME280;15571;50.974;13.936;2023-02-15T04:50:14;101526.16;;;2.10;100.00
28310;BME280;15571;50.974;13.936;2023-02-15T04:53:18;101533.00;;;2.10;100.00
28310;BME280;15571;50.974;13.936;2023-02-15T04:56:21;101522.59;;;2.08;100.00
28310;BME280;15571;50.974;13.936;2023-02-15T04:59:24;101517.22;;;2.04;100.00
28310;BME280;15571;50.974;13.936;2023-02-15T05:02:26;101519.63;;;2.00;100.00
28310;BME280;15571;50.974;13.936;2023-02-15T05:05:31;101523.03;;;1.99;100.00
28310;BME280;15571;50.974;13.936;2023-02-15T05:08:36;101524.00;;;2.01;100.00
28310;BME280;15571;50.974;13.936;2023-02-15T05:11:38;101512.75;;;2.01;100.00
28310;BME280;15571;50.974;13.936;2023-02-15T05:14:44;101509.31;;;2.00;100.00
28310;BME280;15571;50.974;13.936;2023-02-15T05:17:46;101512.69;;;1.99;100.00
28310;BME280;15571;50.974;13.936;2023-02-15T05:20:48;101505.69;;;1.97;100.00
28310;BME280;15571;50.974;13.936;2023-02-15T05:23:50;101515.09;;;1.96;100.00
28310;BME280;15571;50.974;13.936;2023-02-15T05:26:54;101509.06;;;1.96;100.00
28310;BME280;15571;50.974;13.936;2023-02-15T05:30:16;101506.41;;;1.94;100.00
28310;BME280;15571;50.974;13.936;2023-02-15T05:33:20;101512.47;;;1.95;100.00
28310;BME280;15571;50.974;13.936;2023-02-15T05:36:25;101516.59;;;1.91;100.00
28310;BME280;15571;50.974;13.936;2023-02-15T05:39:26;101513.19;;;1.92;100.00
28310;BME280;15571;50.974;13.936;2023-02-15T05:42:28;101507.81;;;1.88;100.00
28310;BME280;15571;50.974;13.936;2023-02-15T05:45:32;101500.94;;;1.88;100.00
28310;BME280;15571;50.974;13.936;2023-02-15T05:48:34;101505.28;;;1.89;100.00
28310;BME280;15571;50.974;13.936;2023-02-15T05:51:36;101512.06;;;1.87;100.00
28310;BME280;15571;50.974;13.936;2023-02-15T05:54:38;101510.22;;;1.84;100.00
28310;BME280;15571;50.974;13.936;2023-02-15T05:57:43;101506.75;;;1.84;100.00
28310;BME280;15571;50.974;13.936;2023-02-15T06:00:47;101506.66;;;1.82;100.00
28310;BME280;15571;50.974;13.936;2023-02-15T06:03:49;101510.16;;;1.83;100.00
28310;BME280;15571;50.974;13.936;2023-02-15T06:06:51;101508.31;;;1.80;100.00
28310;BME280;15571;50.974;13.936;2023-02-15T06:09:53;101505.78;;;1.82;100.00
28310;BME280;15571;50.974;13.936;2023-02-15T06:12:55;101509.19;;;1.81;100.00
28310;BME280;15571;50.974;13.936;2023-02-15T06:15:59;101510.78;;;1.79;100.00
28310;BME280;15571;50.974;13.936;2023-02-15T06:19:03;101504.75;;;1.78;100.00
28310;BME280;15571;50.974;13.936;2023-02-15T06:22:09;101509.00;;;1.78;100.00
28310;BME280;15571;50.974;13.936;2023-02-15T06:25:11;101514.19;;;1.78;100.00
28310;BME280;15571;50.974;13.936;2023-02-15T06:28:16;101515.22;;;1.81;100.00
28310;BME280;15571;50.974;13.936;2023-02-15T06:31:20;101509.19;;;1.81;100.00
28310;BME280;15571;50.974;13.936;2023-02-15T06:34:21;101505.00;;;1.83;100.00
28310;BME280;15571;50.974;13.936;2023-02-15T06:37:23;101499.72;;;1.81;100.00
28310;BME280;15571;50.974;13.936;2023-02-15T06:40:25;101504.03;;;1.81;100.00
28310;BME280;15571;50.974;13.936;2023-02-15T06:43:27;101498.84;;;1.81;100.00
28310;BME280;15571;50.974;13.936;2023-02-15T06:46:32;101502.31;;;1.81;100.00
28310;BME280;15571;50.974;13.936;2023-02-15T06:49:36;101499.50;;;1.77;100.00
28310;BME280;15571;50.974;13.936;2023-02-15T06:52:38;101498.56;;;1.75;100.00
28310;BME280;15571;50.974;13.936;2023-02-15T06:55:40;101501.19;;;1.76;100.00
28310;BME280;15571;50.974;13.936;2023-02-15T06:58:42;101496.03;;;1.76;100.00
28310;BME280;15571;50.974;13.936;2023-02-15T07:01:47;101488.34;;;1.78;100.00
28310;BME280;15571;50.974;13.936;2023-02-15T07:04:52;101491.91;;;1.80;100.00
28310;BME280;15571;50.974;13.936;2023-02-15T07:07:58;101495.28;;;1.79;100.00
28310;BME280;15571;50.974;13.936;2023-02-15T07:11:00;101497.06;;;1.80;100.00
28310;BME280;15571;50.974;13.936;2023-02-15T07:14:16;101497.25;;;1.83;100.00
28310;BME280;15571;50.974;13.936;2023-02-15T07:17:19;101496.34;;;1.82;100.00
28310;BME280;15571;50.974;13.936;2023-02-15T07:20:21;101492.94;;;1.83;100.00
28310;BME280;15571;50.974;13.936;2023-02-15T07:23:27;101486.19;;;1.85;100.00
28310;BME280;15571;50.974;13.936;2023-02-15T07:26:34;101491.28;;;1.84;100.00
28310;BME280;15571;50.974;13.936;2023-02-15T07:29:36;101482.72;;;1.85;100.00
28310;BME280;15571;50.974;13.936;2023-02-15T07:32:39;101492.25;;;1.86;100.00
28310;BME280;15571;50.974;13.936;2023-02-15T07:36:02;101474.97;;;1.85;100.00
28310;BME280;15571;50.974;13.936;2023-02-15T07:39:04;101481.19;;;1.89;100.00
28310;BME280;15571;50.974;13.936;2023-02-15T07:42:09;101472.63;;;1.90;100.00
28310;BME280;15571;50.974;13.936;2023-02-15T07:45:11;101478.81;;;1.93;100.00
28310;BME280;15571;50.974;13.936;2023-02-15T07:48:14;101473.72;;;1.95;100.00
28310;BME280;15571;50.974;13.936;2023-02-15T07:51:16;101467.75;;;1.96;100.00
28310;BME280;15571;50.974;13.936;2023-02-15T07:54:17;101470.63;;;2.02;100.00
28310;BME280;15571;50.974;13.936;2023-02-15T07:57:21;101463.94;;;2.06;100.00
28310;BME280;15571;50.974;13.936;2023-02-15T08:00:23;101458.91;;;2.09;100.00
28310;BME280;15571;50.974;13.936;2023-02-15T08:03:27;101445.19;;;2.10;100.00
28310;BME280;15571;50.974;13.936;2023-02-15T08:06:29;101443.72;;;2.15;100.00
28310;BME280;15571;50.974;13.936;2023-02-15T08:09:35;101438.56;;;2.15;100.00
28310;BME280;15571;50.974;13.936;2023-02-15T08:12:37;101430.13;;;2.19;100.00
28310;BME280;15571;50.974;13.936;2023-02-15T08:15:41;101425.13;;;2.22;100.00
28310;BME280;15571;50.974;13.936;2023-02-15T08:18:50;101428.66;;;2.24;100.00
28310;BME280;15571;50.974;13.936;2023-02-15T08:21:53;101419.34;;;2.28;100.00
28310;BME280;15571;50.974;13.936;2023-02-15T08:24:57;101424.53;;;2.28;100.00
28310;BME280;15571;50.974;13.936;2023-02-15T08:27:59;101427.31;;;2.32;100.00
28310;BME280;15571;50.974;13.936;2023-02-15T08:31:03;101424.06;;;2.37;100.00
28310;BME280;15571;50.974;13.936;2023-02-15T08:34:07;101415.59;;;2.39;100.00
28310;BME280;15571;50.974;13.936;2023-02-15T08:37:18;101415.81;;;2.44;100.00
28310;BME280;15571;50.974;13.936;2023-02-15T08:40:20;101407.25;;;2.45;100.00
28310;BME280;15571;50.974;13.936;2023-02-15T08:43:27;101414.31;;;2.49;100.00
28310;BME280;15571;50.974;13.936;2023-02-15T08:46:30;101405.94;;;2.55;100.00
28310;BME280;15571;50.974;13.936;2023-02-15T08:49:34;101411.31;;;2.59;100.00
28310;BME280;15571;50.974;13.936;2023-02-15T08:52:35;101410.66;;;2.63;100.00
28310;BME280;15571;50.974;13.936;2023-02-15T08:55:37;101408.19;;;2.67;100.00
28310;BME280;15571;50.974;13.936;2023-02-15T08:58:40;101405.72;;;2.68;100.00
28310;BME280;15571;50.974;13.936;2023-02-15T09:01:42;101404.97;;;2.71;100.00
28310;BME280;15571;50.974;13.936;2023-02-15T09:04:48;101405.81;;;2.71;100.00
28310;BME280;15571;50.974;13.936;2023-02-15T09:07:53;101394.88;;;2.77;100.00
28310;BME280;15571;50.974;13.936;2023-02-15T09:11:03;101397.63;;;2.80;100.00
28310;BME280;15571;50.974;13.936;2023-02-15T09:14:06;101393.53;;;2.85;100.00
28310;BME280;15571;50.974;13.936;2023-02-15T09:17:09;101398.84;;;2.88;100.00
28310;BME280;15571;50.974;13.936;2023-02-15T09:23:18;101394.56;;;2.89;100.00
28310;BME280;15571;50.974;13.936;2023-02-15T09:26:23;101397.34;;;2.93;100.00
28310;BME280;15571;50.974;13.936;2023-02-15T09:29:25;101399.84;;;2.92;100.00
28310;BME280;15571;50.974;13.936;2023-02-15T09:32:29;101395.03;;;3.00;100.00
28310;BME280;15571;50.974;13.936;2023-02-15T09:35:31;101401.22;;;3.03;100.00
28310;BME280;15571;50.974;13.936;2023-02-15T09:38:36;101387.72;;;3.10;100.00
28310;BME280;15571;50.974;13.936;2023-02-15T09:48:23;101387.47;;;3.24;100.00
28310;BME280;15571;50.974;13.936;2023-02-15T09:51:44;101388.47;;;3.27;100.00
28310;BME280;15571;50.974;13.936;2023-02-15T09:55:03;101387.81;;;3.32;100.00
28310;BME280;15571;50.974;13.936;2023-02-15T09:58:12;101381.91;;;3.36;100.00
28310;BME280;15571;50.974;13.936;2023-02-15T10:01:26;101378.50;;;3.37;100.00
28310;BME280;15571;50.974;13.936;2023-02-15T10:04:40;101386.53;;;3.43;100.00
28310;BME280;15571;50.974;13.936;2023-02-15T10:07:53;101389.25;;;3.46;100.00
28310;BME280;15571;50.974;13.936;2023-02-15T10:11:05;101384.28;;;3.51;100.00
28310;BME280;15571;50.974;13.936;2023-02-15T10:14:31;101384.47;;;3.55;100.00
28310;BME280;15571;50.974;13.936;2023-02-15T10:17:42;101383.84;;;3.61;100.00
28310;BME280;15571;50.974;13.936;2023-02-15T10:20:50;101384.78;;;3.63;100.00
28310;BME280;15571;50.974;13.936;2023-02-15T10:24:09;101372.72;;;3.64;100.00
28310;BME280;15571;50.974;13.936;2023-02-15T10:27:18;101366.84;;;3.68;100.00
28310;BME280;15571;50.974;13.936;2023-02-15T10:30:23;101367.00;;;3.71;100.00
28310;BME280;15571;50.974;13.936;2023-02-15T10:33:33;101357.69;;;3.76;100.00
28310;BME280;15571;50.974;13.936;2023-02-15T10:36:51;101359.47;;;3.77;100.00
28310;BME280;15571;50.974;13.936;2023-02-15T10:39:59;101358.69;;;3.80;100.00
28310;BME280;15571;50.974;13.936;2023-02-15T10:43:21;101356.28;;;3.84;100.00
28310;BME280;15571;50.974;13.936;2023-02-15T10:46:34;101355.59;;;3.88;100.00
28310;BME280;15571;50.974;13.936;2023-02-15T10:53:14;101348.06;;;3.95;100.00
28310;BME280;15571;50.974;13.936;2023-02-15T10:56:19;101339.47;;;3.96;100.00
28310;BME280;15571;50.974;13.936;2023-02-15T10:59:33;101335.28;;;3.99;100.00
28310;BME280;15571;50.974;13.936;2023-02-15T11:02:51;101324.88;;;3.98;100.00
28310;BME280;15571;50.974;13.936;2023-02-15T11:06:07;101322.28;;;3.98;100.00
28310;BME280;15571;50.974;13.936;2023-02-15T11:09:11;101325.81;;;4.00;100.00
28310;BME280;15571;50.974;13.936;2023-02-15T11:12:28;101310.38;;;4.03;100.00
28310;BME280;15571;50.974;13.936;2023-02-15T11:15:35;101306.00;;;4.02;100.00
28310;BME280;15571;50.974;13.936;2023-02-15T11:18:41;101312.28;;;4.07;100.00
28310;BME280;15571;50.974;13.936;2023-02-15T11:21:49;101295.09;;;4.09;100.00
28310;BME280;15571;50.974;13.936;2023-02-15T11:24:52;101299.44;;;4.10;100.00
28310;BME280;15571;50.974;13.936;2023-02-15T11:27:59;101303.81;;;4.11;100.00
28310;BME280;15571;50.974;13.936;2023-02-15T11:31:16;101291.88;;;4.16;100.00
28310;BME280;15571;50.974;13.936;2023-02-15T11:34:29;101286.84;;;4.19;100.00
28310;BME280;15571;50.974;13.936;2023-02-15T11:37:37;101289.53;;;4.23;100.00
28310;BME280;15571;50.974;13.936;2023-02-15T11:40:44;101287.91;;;4.26;100.00
28310;BME280;15571;50.974;13.936;2023-02-15T11:43:49;101274.31;;;4.32;100.00
28310;BME280;15571;50.974;13.936;2023-02-15T11:46:53;101279.63;;;4.35;100.00
28310;BME280;15571;50.974;13.936;2023-02-15T11:49:59;101282.22;;;4.35;100.00
28310;BME280;15571;50.974;13.936;2023-02-15T11:53:02;101285.03;;;4.41;100.00
28310;BME280;15571;50.974;13.936;2023-02-15T11:56:10;101284.09;;;4.39;100.00
28310;BME280;15571;50.974;13.936;2023-02-15T11:59:18;101281.44;;;4.38;100.00
28310;BME280;15571;50.974;13.936;2023-02-15T12:02:27;101280.84;;;4.45;100.00
28310;BME280;15571;50.974;13.936;2023-02-15T12:05:30;101279.13;;;4.45;100.00
28310;BME280;15571;50.974;13.936;2023-02-15T12:08:36;101271.34;;;4.45;100.00
28310;BME280;15571;50.974;13.936;2023-02-15T12:11:47;101268.09;;;4.51;100.00
28310;BME280;15571;50.974;13.936;2023-02-15T12:14:54;101260.31;;;4.51;100.00
28310;BME280;15571;50.974;13.936;2023-02-15T12:18:15;101258.59;;;4.51;100.00
28310;BME280;15571;50.974;13.936;2023-02-15T12:21:25;101255.19;;;4.52;100.00
28310;BME280;15571;50.974;13.936;2023-02-15T12:24:36;101257.91;;;4.56;100.00
28310;BME280;15571;50.974;13.936;2023-02-15T12:27:42;101240.56;;;4.55;100.00
28310;BME280;15571;50.974;13.936;2023-02-15T12:30:44;101245.91;;;4.59;100.00
28310;BME280;15571;50.974;13.936;2023-02-15T12:33:55;101249.28;;;4.57;100.00
28310;BME280;15571;50.974;13.936;2023-02-15T12:37:02;101245.88;;;4.58;100.00
28310;BME280;15571;50.974;13.936;2023-02-15T12:40:19;101231.28;;;4.61;100.00
28310;BME280;15571;50.974;13.936;2023-02-15T12:43:24;101217.53;;;4.64;100.00
28310;BME280;15571;50.974;13.936;2023-02-15T12:46:26;101227.06;;;4.63;100.00
28310;BME280;15571;50.974;13.936;2023-02-15T12:49:30;101207.13;;;4.62;100.00
28310;BME280;15571;50.974;13.936;2023-02-15T12:52:32;101208.94;;;4.65;100.00
28310;BME280;15571;50.974;13.936;2023-02-15T12:55:37;101206.47;;;4.68;100.00
28310;BME280;15571;50.974;13.936;2023-02-15T12:58:41;101210.00;;;4.70;100.00
28310;BME280;15571;50.974;13.936;2023-02-15T13:01:46;101201.34;;;4.71;100.00
28310;BME280;15571;50.974;13.936;2023-02-15T13:04:50;101197.03;;;4.70;100.00
28310;BME280;15571;50.974;13.936;2023-02-15T13:07:56;101197.03;;;4.70;100.00
28310;BME280;15571;50.974;13.936;2023-02-15T13:11:00;101184.88;;;4.69;100.00
28310;BME280;15571;50.974;13.936;2023-02-15T13:14:04;101183.31;;;4.74;100.00
28310;BME280;15571;50.974;13.936;2023-02-15T13:17:18;101182.38;;;4.72;100.00
28310;BME280;15571;50.974;13.936;2023-02-15T13:20:23;101172.94;;;4.74;100.00
28310;BME280;15571;50.974;13.936;2023-02-15T13:23:31;101177.31;;;4.75;100.00
28310;BME280;15571;50.974;13.936;2023-02-15T13:26:36;101176.47;;;4.76;100.00
28310;BME280;15571;50.974;13.936;2023-02-15T13:29:41;101190.44;;;4.80;100.00
28310;BME280;15571;50.974;13.936;2023-02-15T13:32:44;101195.56;;;4.78;100.00
28310;BME280;15571;50.974;13.936;2023-02-15T13:36:02;101203.41;;;4.80;100.00
28310;BME280;15571;50.974;13.936;2023-02-15T13:39:10;101205.06;;;4.78;100.00
28310;BME280;15571;50.974;13.936;2023-02-15T15:26:25;101201.06;;;4.13;100.00
28310;BME280;15571;50.974;13.936;2023-02-15T15:29:38;101193.19;;;4.10;100.00
28310;BME280;15571;50.974;13.936;2023-02-15T15:32:45;101203.44;;;4.07;100.00
28310;BME280;15571;50.974;13.936;2023-02-15T15:35:54;101209.41;;;4.04;100.00
28310;BME280;15571;50.974;13.936;2023-02-15T15:39:04;101207.50;;;4.00;100.00
28310;BME280;15571;50.974;13.936;2023-02-15T15:42:21;101203.94;;;3.97;100.00
28310;BME280;15571;50.974;13.936;2023-02-15T15:45:37;101204.63;;;3.93;100.00
28310;BME280;15571;50.974;13.936;2023-02-15T15:48:42;101199.34;;;3.89;100.00
28310;BME280;15571;50.974;13.936;2023-02-15T15:51:45;101191.41;;;3.85;100.00
28310;BME280;15571;50.974;13.936;2023-02-15T15:54:48;101190.34;;;3.80;100.00
28310;BME280;15571;50.974;13.936;2023-02-15T15:57:54;101189.34;;;3.76;100.00
28310;BME280;15571;50.974;13.936;2023-02-15T16:00:59;101188.31;;;3.71;100.00
28310;BME280;15571;50.974;13.936;2023-02-15T16:04:05;101194.16;;;3.67;100.00
28310;BME280;15571;50.974;13.936;2023-02-15T16:07:14;101179.22;;;3.60;100.00
28310;BME280;15571;50.974;13.936;2023-02-15T16:10:25;101174.69;;;3.54;100.00
28310;BME280;15571;50.974;13.936;2023-02-15T16:13:29;101173.56;;;3.47;100.00
28310;BME280;15571;50.974;13.936;2023-02-15T16:16:30;101175.03;;;3.40;100.00
28310;BME280;15571;50.974;13.936;2023-02-15T16:19:37;101179.22;;;3.37;100.00
28310;BME280;15571;50.974;13.936;2023-02-15T16:22:40;101172.22;;;3.34;100.00
28310;BME280;15571;50.974;13.936;2023-02-15T16:25:44;101168.56;;;3.29;100.00
28310;BME280;15571;50.974;13.936;2023-02-15T16:28:51;101181.25;;;3.23;100.00
28310;BME280;15571;50.974;13.936;2023-02-15T16:32:00;101182.97;;;3.22;100.00
28310;BME280;15571;50.974;13.936;2023-02-15T16:35:02;101194.16;;;3.21;100.00
28310;BME280;15571;50.974;13.936;2023-02-15T16:38:04;101198.22;;;3.16;100.00
28310;BME280;15571;50.974;13.936;2023-02-15T16:41:06;101198.13;;;3.13;100.00
28310;BME280;15571;50.974;13.936;2023-02-15T16:44:12;101204.94;;;3.11;100.00
28310;BME280;15571;50.974;13.936;2023-02-15T16:47:17;101206.44;;;3.06;100.00
28310;BME280;15571;50.974;13.936;2023-02-15T16:50:25;101198.56;;;3.03;100.00
28310;BME280;15571;50.974;13.936;2023-02-15T16:53:31;101188.03;;;2.98;100.00
28310;BME280;15571;50.974;13.936;2023-02-15T16:56:33;101186.19;;;2.95;100.00
28310;BME280;15571;50.974;13.936;2023-02-15T16:59:41;101186.91;;;2.91;100.00
28310;BME280;15571;50.974;13.936;2023-02-15T17:02:53;101181.53;;;2.87;100.00
28310;BME280;15571;50.974;13.936;2023-02-15T17:06:01;101190.97;;;2.86;100.00
28310;BME280;15571;50.974;13.936;2023-02-15T17:09:06;101193.31;;;2.80;100.00
28310;BME280;15571;50.974;13.936;2023-02-15T17:15:35;101205.06;;;2.72;100.00
28310;BME280;15571;50.974;13.936;2023-02-15T17:18:38;101203.34;;;2.72;100.00
28310;BME280;15571;50.974;13.936;2023-02-15T17:21:41;101204.09;;;2.70;100.00
28310;BME280;15571;50.974;13.936;2023-02-15T17:24:57;101189.41;;;2.69;100.00
28310;BME280;15571;50.974;13.936;2023-02-15T17:27:59;101183.41;;;2.70;100.00
28310;BME280;15571;50.974;13.936;2023-02-15T17:31:02;101179.88;;;2.68;100.00
28310;BME280;15571;50.974;13.936;2023-02-15T17:34:09;101184.66;;;2.58;100.00
28310;BME280;15571;50.974;13.936;2023-02-15T17:37:42;101195.81;;;2.57;100.00
28310;BME280;15571;50.974;13.936;2023-02-15T17:40:44;101185.22;;;2.51;100.00
28310;BME280;15571;50.974;13.936;2023-02-15T17:43:48;101182.59;;;2.49;100.00
28310;BME280;15571;50.974;13.936;2023-02-15T17:46:50;101188.63;;;2.50;100.00
28310;BME280;15571;50.974;13.936;2023-02-15T17:49:52;101185.09;;;2.48;100.00
28310;BME280;15571;50.974;13.936;2023-02-15T17:52:55;101191.78;;;2.43;100.00
28310;BME280;15571;50.974;13.936;2023-02-15T17:55:58;101185.59;;;2.39;100.00
28310;BME280;15571;50.974;13.936;2023-02-15T17:59:13;101183.72;;;2.37;100.00
28310;BME280;15571;50.974;13.936;2023-02-15T18:02:17;101194.88;;;2.36;100.00
28310;BME280;15571;50.974;13.936;2023-02-15T18:05:36;101192.28;;;2.36;100.00
28310;BME280;15571;50.974;13.936;2023-02-15T18:08:57;101189.59;;;2.32;100.00
28310;BME280;15571;50.974;13.936;2023-02-15T18:12:20;101181.91;;;2.34;100.00